createdAt,value
2019-05-21T00:00:29.092Z,99580
2019-05-21T00:02:57.922Z,99586
2019-05-21T00:05:26.761Z,99580
2019-05-21T00:07:55.611Z,99571
2019-05-21T00:10:24.425Z,99571
2019-05-21T00:12:54.005Z,99576
2019-05-21T00:15:22.850Z,99582
2019-05-21T00:17:51.725Z,99578
2019-05-21T00:20:20.535Z,99573
2019-05-21T00:22:50.097Z,99574
2019-05-21T00:25:18.937Z,99574
2019-05-21T00:27:47.782Z,99571
2019-05-21T00:30:35.075Z,99565
2019-05-21T00:33:21.879Z,99571
2019-05-21T00:36:08.614Z,99565
2019-05-21T00:39:23.487Z,99578
2019-05-21T00:41:59.721Z,99575
2019-05-21T00:44:28.561Z,99573
2019-05-21T00:46:57.426Z,99570
2019-05-21T00:49:26.225Z,99565
2019-05-21T00:52:06.838Z,99570
2019-05-21T00:54:24.642Z,99567
2019-05-21T00:56:53.467Z,99577
2019-05-21T00:59:22.375Z,99573
2019-05-21T01:01:51.799Z,99574
2019-05-21T01:04:21.368Z,99588
2019-05-21T01:06:50.205Z,99577
2019-05-21T01:09:19.061Z,99580
2019-05-21T01:11:47.900Z,99580
2019-05-21T01:14:16.731Z,99576
2019-05-21T01:16:45.560Z,99580
2019-05-21T01:19:14.388Z,99580
2019-05-21T01:21:43.224Z,99573
2019-05-21T01:24:12.062Z,99575
2019-05-21T01:26:40.897Z,99573
2019-05-21T01:29:09.722Z,99582
2019-05-21T01:31:38.576Z,99582
2019-05-21T01:34:11.318Z,99580
2019-05-21T01:36:37.023Z,99584
2019-05-21T01:39:06.554Z,99586
2019-05-21T01:41:35.388Z,99581
2019-05-21T01:44:04.250Z,99590
2019-05-21T01:46:33.075Z,99584
2019-05-21T01:49:01.922Z,99582
2019-05-21T01:51:30.760Z,99586
2019-05-21T01:53:59.582Z,99577
2019-05-21T01:56:28.412Z,99583
2019-05-21T01:58:58.048Z,99577
2019-05-21T02:01:26.883Z,99578
2019-05-21T02:03:55.676Z,99580
2019-05-21T02:06:24.509Z,99579
2019-05-21T02:08:53.350Z,99575
2019-05-21T02:11:22.179Z,99577
2019-05-21T02:13:51.578Z,99574
2019-05-21T02:16:20.418Z,99574
2019-05-21T02:18:49.249Z,99572
2019-05-21T02:21:18.116Z,99576
2019-05-21T02:23:47.154Z,99575
2019-05-21T02:26:15.982Z,99574
2019-05-21T02:28:44.842Z,99579
2019-05-21T02:31:14.400Z,99574
2019-05-21T02:33:44.000Z,99582
2019-05-21T02:36:12.840Z,99575
2019-05-21T02:38:41.684Z,99576
2019-05-21T02:41:10.503Z,99567
2019-05-21T02:43:39.344Z,99577
2019-05-21T02:46:08.169Z,99579
2019-05-21T02:48:37.040Z,99578
2019-05-21T02:51:05.852Z,99571
2019-05-21T02:53:34.882Z,99567
2019-05-21T02:56:03.507Z,99570
2019-05-21T02:58:32.340Z,99569
2019-05-21T03:01:03.969Z,99568
2019-05-21T03:03:32.768Z,99564
2019-05-21T03:06:12.967Z,99566
2019-05-21T03:08:30.423Z,99565
2019-05-21T03:10:59.990Z,99562
2019-05-21T03:13:28.811Z,99571
2019-05-21T03:15:58.394Z,99571
2019-05-21T03:18:27.222Z,99580
2019-05-21T03:20:56.054Z,99586
2019-05-21T03:23:24.887Z,99585
2019-05-21T03:25:54.456Z,99583
2019-05-21T03:28:23.297Z,99585
2019-05-21T03:30:52.146Z,99600
2019-05-21T03:33:20.997Z,99597
2019-05-21T03:35:50.557Z,99598
2019-05-21T03:38:19.395Z,99593
2019-05-21T03:40:48.230Z,99577
2019-05-21T03:43:17.062Z,99593
2019-05-21T03:45:51.686Z,99582
2019-05-21T03:48:20.518Z,99592
2019-05-21T03:50:49.395Z,99595
2019-05-21T03:53:18.201Z,99591
2019-05-21T03:55:47.034Z,99601
2019-05-21T03:58:15.869Z,99611
2019-05-21T04:00:44.700Z,99607
2019-05-21T04:03:13.537Z,99607
2019-05-21T04:05:42.374Z,99615
2019-05-21T04:08:11.958Z,99620
2019-05-21T04:10:40.796Z,99620
2019-05-21T04:13:09.853Z,99618
2019-05-21T04:15:38.508Z,99620
2019-05-21T04:18:07.307Z,99630
2019-05-21T04:20:36.118Z,99629
2019-05-21T04:23:04.963Z,99632
2019-05-21T04:25:33.819Z,99633
2019-05-21T04:28:02.653Z,99635
2019-05-21T04:30:31.490Z,99630
2019-05-21T04:33:00.316Z,99626
2019-05-21T04:35:29.152Z,99623
2019-05-21T04:40:21.837Z,99613
2019-05-21T04:42:50.677Z,99602
2019-05-21T04:45:19.523Z,99602
2019-05-21T04:47:48.356Z,99588
2019-05-21T04:50:17.235Z,99586
2019-05-21T04:52:46.048Z,99585
2019-05-21T04:55:14.856Z,99591
2019-05-21T04:57:44.459Z,99577
2019-05-21T05:00:14.019Z,99579
2019-05-21T05:02:42.874Z,99573
2019-05-21T05:05:11.723Z,99576
2019-05-21T05:07:40.566Z,99566
2019-05-21T05:10:09.401Z,99571
2019-05-21T05:12:38.836Z,99576
2019-05-21T05:15:07.676Z,99581
2019-05-21T05:17:36.517Z,99585
2019-05-21T05:20:05.378Z,99579
2019-05-21T05:22:34.201Z,99587
2019-05-21T05:25:03.024Z,99585
2019-05-21T05:27:31.853Z,99598
2019-05-21T05:30:01.420Z,99614
2019-05-21T05:32:30.263Z,99613
2019-05-21T05:34:59.114Z,99625
2019-05-21T05:37:42.755Z,99608
2019-05-21T05:39:56.782Z,99613
2019-05-21T05:42:25.618Z,99623
2019-05-21T05:44:54.507Z,99640
2019-05-21T05:47:23.412Z,99642
2019-05-21T05:49:52.365Z,99643
2019-05-21T05:52:21.201Z,99634
2019-05-21T05:54:50.043Z,99634
2019-05-21T05:57:19.639Z,99645
2019-05-21T05:59:48.462Z,99641
2019-05-21T06:02:17.300Z,99641
2019-05-21T06:04:46.203Z,99644
2019-05-21T06:07:15.015Z,99639
2019-05-21T06:09:43.863Z,99644
2019-05-21T06:12:12.715Z,99649
2019-05-21T06:14:41.573Z,99647
2019-05-21T06:17:10.420Z,99655
2019-05-21T06:19:39.262Z,99647
2019-05-21T06:22:08.110Z,99651
2019-05-21T06:24:36.941Z,99649
2019-05-21T06:27:06.533Z,99654
2019-05-21T06:29:39.322Z,99648
2019-05-21T06:32:04.202Z,99653
2019-05-21T06:34:33.622Z,99647
2019-05-21T06:37:03.195Z,99658
2019-05-21T06:39:32.044Z,99647
2019-05-21T06:42:00.876Z,99640
2019-05-21T06:44:29.722Z,99645
2019-05-21T06:46:58.576Z,99645
2019-05-21T06:49:27.996Z,99649
2019-05-21T06:51:57.585Z,99658
2019-05-21T06:54:27.158Z,99656
2019-05-21T06:56:56.004Z,99659
2019-05-21T06:59:24.848Z,99653
2019-05-21T07:01:53.697Z,99658
2019-05-21T07:04:23.262Z,99654
2019-05-21T07:06:52.103Z,99655
2019-05-21T07:09:20.964Z,99655
2019-05-21T07:11:49.756Z,99662
2019-05-21T07:14:18.634Z,99678
2019-05-21T07:16:47.452Z,99667
2019-05-21T07:19:16.308Z,99686
2019-05-21T07:21:45.902Z,99682
2019-05-21T07:24:14.744Z,99668
2019-05-21T07:26:43.683Z,99662
2019-05-21T07:29:12.514Z,99652
2019-05-21T07:31:41.349Z,99655
2019-05-21T07:34:10.185Z,99654
2019-05-21T07:36:39.050Z,99656
2019-05-21T07:39:08.633Z,99661
2019-05-21T07:41:37.468Z,99669
2019-05-21T07:44:06.349Z,99668
2019-05-21T07:46:39.273Z,99668
2019-05-21T07:49:04.750Z,99668
2019-05-21T07:51:33.572Z,99676
2019-05-21T07:54:02.410Z,99675
2019-05-21T07:56:32.011Z,99675
2019-05-21T07:59:01.734Z,99682
2019-05-21T08:01:31.223Z,99676
2019-05-21T08:04:00.066Z,99665
2019-05-21T08:06:29.850Z,99688
2019-05-21T08:09:12.359Z,99691
2019-05-21T08:11:27.529Z,99691
2019-05-21T08:13:57.116Z,99698
2019-05-21T08:16:25.952Z,99697
2019-05-21T08:18:54.810Z,99714
2019-05-21T08:21:23.670Z,99699
2019-05-21T08:23:52.507Z,99690
2019-05-21T08:26:21.356Z,99698
2019-05-21T08:28:50.217Z,99699
2019-05-21T08:31:19.070Z,99704
2019-05-21T08:33:47.910Z,99694
2019-05-21T08:36:16.752Z,99693
2019-05-21T08:38:45.585Z,99714
2019-05-21T08:41:14.423Z,99724
2019-05-21T08:43:43.253Z,99730
2019-05-21T08:46:12.076Z,99735
2019-05-21T08:48:41.683Z,99744
2019-05-21T08:51:10.522Z,99734
2019-05-21T08:53:39.367Z,99748
2019-05-21T08:56:08.842Z,99756
2019-05-21T08:58:37.668Z,99754
2019-05-21T09:01:06.544Z,99758
2019-05-21T09:03:35.394Z,99761
2019-05-21T09:06:04.213Z,99771
2019-05-21T09:08:33.823Z,99765
2019-05-21T09:11:02.671Z,99765
2019-05-21T09:13:31.524Z,99779
2019-05-21T09:16:00.349Z,99765
2019-05-21T09:18:29.184Z,99768
2019-05-21T09:20:58.027Z,99773
2019-05-21T09:23:26.882Z,99777
2019-05-21T09:25:55.734Z,99783
2019-05-21T09:28:24.574Z,99788
2019-05-21T09:30:53.402Z,99787
2019-05-21T09:33:22.240Z,99788
2019-05-21T09:35:51.086Z,99805
2019-05-21T09:38:19.952Z,99804
2019-05-21T09:40:48.789Z,99803
2019-05-21T09:43:17.627Z,99811
2019-05-21T09:45:46.473Z,99820
2019-05-21T09:48:16.044Z,99823
2019-05-21T09:50:44.913Z,99831
2019-05-21T09:53:13.716Z,99834
2019-05-21T09:55:42.566Z,99834
2019-05-21T09:58:11.508Z,99830
2019-05-21T10:00:41.882Z,99830
2019-05-21T10:03:16.646Z,99836
2019-05-21T10:05:45.475Z,99834
2019-05-21T10:08:14.312Z,99836
2019-05-21T10:10:43.172Z,99830
2019-05-21T10:13:12.011Z,99838
2019-05-21T10:15:40.867Z,99839
2019-05-21T10:18:09.698Z,99844
2019-05-21T10:20:39.127Z,99854
2019-05-21T10:23:08.704Z,99846
2019-05-21T10:25:37.579Z,99846
2019-05-21T10:28:06.389Z,99850
2019-05-21T10:30:35.269Z,99850
2019-05-21T10:33:04.150Z,99861
2019-05-21T10:35:32.939Z,99855
2019-05-21T10:38:01.779Z,99865
2019-05-21T10:40:30.688Z,99875
2019-05-21T10:42:59.456Z,99871
2019-05-21T10:45:28.361Z,99870
2019-05-21T10:47:57.184Z,99874
2019-05-21T10:50:26.095Z,99871
2019-05-21T10:52:54.865Z,99881
2019-05-21T10:55:23.695Z,99885
2019-05-21T10:57:52.526Z,99879
2019-05-21T11:00:22.886Z,99879
2019-05-21T11:02:50.393Z,99889
2019-05-21T11:05:23.621Z,99887
2019-05-21T11:07:52.483Z,99890
2019-05-21T11:10:21.324Z,99897
2019-05-21T11:12:50.208Z,99904
2019-05-21T11:15:19.031Z,99905
2019-05-21T11:17:59.269Z,99908
2019-05-21T11:20:16.699Z,99914
2019-05-21T11:22:45.545Z,99911
2019-05-21T11:25:14.379Z,99931
2019-05-21T11:27:43.228Z,99928
2019-05-21T11:30:12.084Z,99929
2019-05-21T11:32:40.943Z,99939
2019-05-21T11:35:09.794Z,99944
2019-05-21T11:37:39.222Z,99945
2019-05-21T11:40:08.728Z,99950
2019-05-21T11:42:36.907Z,99951
2019-05-21T11:45:06.477Z,99949
2019-05-21T11:47:35.329Z,99952
2019-05-21T11:50:07.035Z,99956
2019-05-21T11:52:36.620Z,99960
2019-05-21T11:55:05.452Z,99964
2019-05-21T11:57:34.329Z,99964
2019-05-21T12:00:03.128Z,99968
2019-05-21T12:02:32.716Z,99962
2019-05-21T12:05:01.586Z,99972
2019-05-21T12:07:30.372Z,99973
2019-05-21T12:10:00.483Z,99975
2019-05-21T12:12:29.327Z,99979
2019-05-21T12:14:58.161Z,99980
2019-05-21T12:17:27.018Z,99985
2019-05-21T12:19:55.848Z,99987
2019-05-21T12:22:24.697Z,99990
2019-05-21T12:24:53.553Z,99993
2019-05-21T12:27:22.400Z,99993
2019-05-21T12:29:51.225Z,99993
2019-05-21T12:32:21.094Z,99999
2019-05-21T12:34:48.919Z,100005
2019-05-21T12:37:18.503Z,100010
2019-05-21T12:39:47.397Z,100012
2019-05-21T12:42:16.200Z,100016
2019-05-21T12:44:45.797Z,100016
2019-05-21T12:47:14.663Z,100026
2019-05-21T12:49:43.502Z,100022
2019-05-21T12:52:12.349Z,100030
2019-05-21T12:54:41.189Z,100037
2019-05-21T12:57:10.142Z,100037
2019-05-21T12:59:38.854Z,100045
2019-05-21T13:02:07.702Z,100041
2019-05-21T13:04:36.559Z,100046
2019-05-21T13:07:05.393Z,100039
2019-05-21T13:09:34.999Z,100055
2019-05-21T13:12:03.847Z,100052
2019-05-21T13:14:32.686Z,100057
2019-05-21T13:17:01.584Z,100053
2019-05-21T13:19:30.436Z,100057
2019-05-21T13:21:59.248Z,100062
2019-05-21T13:24:28.093Z,100066
2019-05-21T13:26:56.927Z,100073
2019-05-21T13:29:25.787Z,100080
2019-05-21T13:31:54.624Z,100079
2019-05-21T13:34:23.455Z,100085
2019-05-21T13:36:52.305Z,100092
2019-05-21T13:39:21.191Z,100092
2019-05-21T13:41:50.599Z,100093
2019-05-21T13:44:20.300Z,100094
2019-05-21T13:46:50.020Z,100101
2019-05-21T13:49:19.428Z,100098
2019-05-21T13:51:48.274Z,100106
2019-05-21T13:54:17.191Z,100102
2019-05-21T13:56:46.783Z,100101
2019-05-21T13:59:15.638Z,100106
2019-05-21T14:01:44.465Z,100113
2019-05-21T14:04:14.067Z,100103
2019-05-21T14:06:42.958Z,100118
2019-05-21T14:09:11.831Z,100109
2019-05-21T14:11:40.656Z,100115
2019-05-21T14:14:10.236Z,100114
2019-05-21T14:16:39.094Z,100115
2019-05-21T14:19:07.960Z,100107
2019-05-21T14:21:36.785Z,100108
2019-05-21T14:24:05.651Z,100108
2019-05-21T14:26:34.511Z,100121
2019-05-21T14:29:04.105Z,100126
2019-05-21T14:31:33.718Z,100130
2019-05-21T14:34:03.363Z,100120
2019-05-21T14:36:32.151Z,100127
2019-05-21T14:39:01.002Z,100134
2019-05-21T14:41:30.571Z,100134
2019-05-21T14:43:59.479Z,100142
2019-05-21T14:46:28.315Z,100134
2019-05-21T14:48:57.163Z,100144
2019-05-21T14:51:26.737Z,100141
2019-05-21T14:53:55.585Z,100151
2019-05-21T14:56:24.524Z,100158
2019-05-21T14:58:53.281Z,100153
2019-05-21T15:01:22.127Z,100147
2019-05-21T15:03:51.783Z,100149
2019-05-21T15:06:21.401Z,100160
2019-05-21T15:08:50.213Z,100158
2019-05-21T15:11:19.063Z,100168
2019-05-21T15:13:47.921Z,100175
2019-05-21T15:16:17.519Z,100160
2019-05-21T15:18:46.398Z,100165
2019-05-21T15:21:20.837Z,100157
2019-05-21T15:23:49.734Z,100167
2019-05-21T15:26:18.545Z,100164
2019-05-21T15:28:47.420Z,100173
2019-05-21T15:31:16.236Z,100179
2019-05-21T15:33:45.065Z,100178
2019-05-21T15:36:16.931Z,100173
2019-05-21T15:38:51.006Z,100183
2019-05-21T15:41:14.632Z,100179
2019-05-21T15:43:44.266Z,100183
2019-05-21T15:46:13.069Z,100188
2019-05-21T15:48:41.909Z,100185
2019-05-21T15:51:10.755Z,100192
2019-05-21T15:53:39.612Z,100193
2019-05-21T15:56:08.575Z,100191
2019-05-21T15:58:37.318Z,100204
2019-05-21T16:01:06.204Z,100199
2019-05-21T16:03:35.063Z,100201
2019-05-21T16:06:03.889Z,100201
2019-05-21T16:08:32.747Z,100203
2019-05-21T16:11:01.580Z,100203
2019-05-21T16:13:30.458Z,100211
2019-05-21T16:15:59.305Z,100199
2019-05-21T16:18:28.166Z,100205
2019-05-21T16:20:57.010Z,100203
2019-05-21T16:23:25.848Z,100204
2019-05-21T16:25:55.506Z,100214
2019-05-21T16:28:25.141Z,100220
2019-05-21T16:30:53.952Z,100221
2019-05-21T16:33:22.816Z,100220
2019-05-21T16:35:51.764Z,100225
2019-05-21T16:38:20.581Z,100225
2019-05-21T16:40:49.418Z,100226
2019-05-21T16:43:19.006Z,100235
2019-05-21T16:45:47.911Z,100235
2019-05-21T16:48:16.739Z,100236
2019-05-21T16:50:45.594Z,100238
2019-05-21T16:53:15.187Z,100244
2019-05-21T16:55:44.029Z,100240
2019-05-21T16:58:12.899Z,100238
2019-05-21T17:00:41.720Z,100239
2019-05-21T17:03:10.563Z,100246
2019-05-21T17:05:39.407Z,100248
2019-05-21T17:08:08.263Z,100253
2019-05-21T17:10:37.150Z,100256
2019-05-21T17:13:06.697Z,100257
2019-05-21T17:15:35.530Z,100261
2019-05-21T17:18:05.108Z,100265
2019-05-21T17:20:34.527Z,100264
2019-05-21T17:23:02.857Z,100263
2019-05-21T17:25:31.658Z,100263
2019-05-21T17:28:00.543Z,100267
2019-05-21T17:30:29.366Z,100272
2019-05-21T17:32:58.985Z,100269
2019-05-21T17:35:28.663Z,100272
2019-05-21T17:37:57.427Z,100269
2019-05-21T17:40:26.281Z,100274
2019-05-21T17:42:55.127Z,100282
2019-05-21T17:45:24.014Z,100286
2019-05-21T17:47:52.849Z,100279
2019-05-21T17:50:21.697Z,100278
2019-05-21T17:52:50.535Z,100282
2019-05-21T17:55:19.384Z,100292
2019-05-21T17:57:48.244Z,100293
2019-05-21T18:00:17.110Z,100297
2019-05-21T18:02:46.009Z,100297
2019-05-21T18:05:15.426Z,100301
2019-05-21T18:07:44.238Z,100310
2019-05-21T18:10:14.277Z,100302
2019-05-21T18:12:42.677Z,100312
2019-05-21T18:15:11.559Z,100321
2019-05-21T18:17:40.413Z,100320
2019-05-21T18:20:09.271Z,100319
2019-05-21T18:22:38.115Z,100323
2019-05-21T18:25:07.703Z,100335
2019-05-21T18:27:36.566Z,100324
2019-05-21T18:30:05.392Z,100341
2019-05-21T18:32:34.978Z,100345
2019-05-21T18:35:03.822Z,100350
2019-05-21T18:37:32.690Z,100357
2019-05-21T18:40:02.276Z,100356
2019-05-21T18:42:31.121Z,100361
2019-05-21T18:44:59.963Z,100364
2019-05-21T18:47:29.585Z,100362
2019-05-21T18:49:58.467Z,100367
2019-05-21T18:52:28.063Z,100372
2019-05-21T18:54:57.676Z,100375
2019-05-21T18:57:27.311Z,100376
2019-05-21T18:59:56.151Z,100376
2019-05-21T19:02:24.993Z,100379
2019-05-21T19:04:53.848Z,100375
2019-05-21T19:07:23.429Z,100378
2019-05-21T19:09:52.280Z,100382
2019-05-21T19:12:29.656Z,100391
2019-05-21T19:14:50.719Z,100394
2019-05-21T19:17:33.249Z,100398
2019-05-21T19:19:49.035Z,100401
2019-05-21T19:22:18.640Z,100414
2019-05-21T19:24:48.297Z,100414
2019-05-21T19:27:17.831Z,100414
2019-05-21T19:29:47.266Z,100424
2019-05-21T19:32:16.868Z,100425
2019-05-21T19:34:45.731Z,100421
2019-05-21T19:37:14.594Z,100430
2019-05-21T19:39:43.417Z,100433
2019-05-21T19:42:12.268Z,100429
2019-05-21T19:44:41.107Z,100439
2019-05-21T19:47:10.014Z,100438
2019-05-21T19:49:38.809Z,100440
2019-05-21T19:52:07.688Z,100439
2019-05-21T19:54:37.291Z,100439
2019-05-21T19:57:06.924Z,100446
2019-05-21T19:59:35.741Z,100445
2019-05-21T20:02:04.572Z,100457
2019-05-21T20:04:33.428Z,100460
2019-05-21T20:07:02.266Z,100461
2019-05-21T20:09:31.115Z,100458
2019-05-21T20:11:59.969Z,100469
2019-05-21T20:14:28.807Z,100468
2019-05-21T20:16:57.760Z,100469
2019-05-21T20:19:26.505Z,100468
2019-05-21T20:21:55.386Z,100474
2019-05-21T20:24:24.233Z,100476
2019-05-21T20:26:53.158Z,100469
2019-05-21T20:29:21.994Z,100478
2019-05-21T20:31:50.832Z,100468
2019-05-21T20:34:20.448Z,100474
2019-05-21T20:36:50.105Z,100473
2019-05-21T20:39:18.954Z,100468
2019-05-21T20:41:47.804Z,100465
2019-05-21T20:44:16.906Z,100474
2019-05-21T20:46:45.546Z,100477
2019-05-21T20:49:14.393Z,100476
2019-05-21T20:51:43.328Z,100476
2019-05-21T20:54:12.090Z,100475
2019-05-21T20:56:40.945Z,100476
2019-05-21T20:59:09.787Z,100475
2019-05-21T21:01:38.686Z,100477
2019-05-21T21:04:07.532Z,100476
2019-05-21T21:06:36.414Z,100479
2019-05-21T21:09:05.931Z,100475
2019-05-21T21:11:35.690Z,100476
2019-05-21T21:14:17.570Z,100478
2019-05-21T21:16:33.254Z,100479
2019-05-21T21:19:02.133Z,100479
2019-05-21T21:21:30.973Z,100477
2019-05-21T21:23:59.821Z,100479
2019-05-21T21:26:28.657Z,100483
2019-05-21T21:28:58.324Z,100479
2019-05-21T21:31:27.163Z,100485
2019-05-21T21:33:55.993Z,100487
2019-05-21T21:36:24.878Z,100489
2019-05-21T21:38:53.755Z,100486
2019-05-21T21:41:22.613Z,100492
2019-05-21T21:43:51.415Z,100490
2019-05-21T21:46:20.996Z,100487
2019-05-21T21:48:49.828Z,100495
2019-05-21T21:51:18.707Z,100497
2019-05-21T21:53:47.548Z,100495
2019-05-21T21:56:16.428Z,100495
2019-05-21T21:58:45.281Z,100494
2019-05-21T22:01:19.671Z,100492
2019-05-21T22:03:48.532Z,100508
2019-05-21T22:06:17.380Z,100507
2019-05-21T22:08:46.484Z,100502
2019-05-21T22:11:15.434Z,100503
2019-05-21T22:13:44.293Z,100500
2019-05-21T22:16:13.167Z,100502
2019-05-21T22:18:42.030Z,100499
2019-05-21T22:24:13.390Z,100497
2019-05-21T22:26:42.972Z,100496
2019-05-21T22:29:11.804Z,100502
2019-05-21T22:31:40.694Z,100502
2019-05-21T22:34:09.529Z,100498
2019-05-21T22:36:38.384Z,100499
2019-05-21T22:39:07.231Z,100500
2019-05-21T22:41:36.047Z,100506
2019-05-21T22:44:05.628Z,100503
2019-05-21T22:46:34.460Z,100495
2019-05-21T22:49:03.322Z,100502
2019-05-21T22:51:32.156Z,100504
2019-05-21T22:54:01.014Z,100507
2019-05-21T22:56:30.596Z,100513
2019-05-21T22:59:00.184Z,100510
2019-05-21T23:01:29.041Z,100520
2019-05-21T23:03:57.880Z,100511
2019-05-21T23:06:26.715Z,100500
2019-05-21T23:08:55.581Z,100505
2019-05-21T23:11:24.368Z,100503
2019-05-21T23:13:53.247Z,100503
2019-05-21T23:16:22.052Z,100500
2019-05-21T23:18:50.894Z,100502
2019-05-21T23:21:19.768Z,100510
2019-05-21T23:23:48.594Z,100500
2019-05-21T23:26:17.430Z,100493
2019-05-21T23:28:46.330Z,100491
2019-05-21T23:31:15.191Z,100492
2019-05-21T23:33:44.018Z,100495
2019-05-21T23:36:12.858Z,100488
2019-05-21T23:38:41.711Z,100487
2019-05-21T23:41:10.546Z,100499
2019-05-21T23:43:39.376Z,100496
2019-05-21T23:46:08.216Z,100496
2019-05-21T23:48:37.075Z,100494
2019-05-21T23:51:06.663Z,100493
2019-05-21T23:53:35.507Z,100487
2019-05-21T23:56:04.338Z,100488
2019-05-21T23:58:33.166Z,100491
